sensor_id;sensor_type;location;lat;lon;timestamp;P1;durP1;ratioP1;P2;durP2;ratioP2
75427;SDS011;64008;55.612;37.698;2023-08-17T00:00:21;8.55;;;3.70;;
75427;SDS011;64008;55.612;37.698;2023-08-17T00:02:46;7.50;;;3.28;;
75427;SDS011;64008;55.612;37.698;2023-08-17T00:05:12;9.73;;;3.20;;
75427;SDS011;64008;55.612;37.698;2023-08-17T00:07:38;10.35;;;3.38;;
75427;SDS011;64008;55.612;37.698;2023-08-17T00:10:03;6.65;;;3.25;;
75427;SDS011;64008;55.612;37.698;2023-08-17T00:12:29;7.65;;;3.22;;
75427;SDS011;64008;55.612;37.698;2023-08-17T00:14:55;7.97;;;3.28;;
75427;SDS011;64008;55.612;37.698;2023-08-17T00:17:20;9.20;;;3.47;;
75427;SDS011;64008;55.612;37.698;2023-08-17T00:19:47;8.45;;;3.60;;
75427;SDS011;64008;55.612;37.698;2023-08-17T00:22:13;7.72;;;3.28;;
75427;SDS011;64008;55.612;37.698;2023-08-17T00:24:38;8.57;;;3.67;;
75427;SDS011;64008;55.612;37.698;2023-08-17T00:27:05;9.80;;;3.25;;
75427;SDS011;64008;55.612;37.698;2023-08-17T00:29:31;9.00;;;3.78;;
75427;SDS011;64008;55.612;37.698;2023-08-17T00:31:57;6.88;;;3.30;;
75427;SDS011;64008;55.612;37.698;2023-08-17T00:34:22;9.88;;;3.40;;
75427;SDS011;64008;55.612;37.698;2023-08-17T00:36:48;9.15;;;3.20;;
75427;SDS011;64008;55.612;37.698;2023-08-17T00:39:13;8.95;;;3.13;;
75427;SDS011;64008;55.612;37.698;2023-08-17T00:41:39;8.93;;;3.28;;
75427;SDS011;64008;55.612;37.698;2023-08-17T00:44:05;7.72;;;3.35;;
75427;SDS011;64008;55.612;37.698;2023-08-17T00:46:31;10.07;;;3.50;;
75427;SDS011;64008;55.612;37.698;2023-08-17T00:51:23;7.38;;;3.15;;
75427;SDS011;64008;55.612;37.698;2023-08-17T00:53:53;7.28;;;2.78;;
75427;SDS011;64008;55.612;37.698;2023-08-17T00:56:22;8.00;;;3.10;;
75427;SDS011;64008;55.612;37.698;2023-08-17T00:58:48;7.47;;;3.42;;
75427;SDS011;64008;55.612;37.698;2023-08-17T01:01:14;7.95;;;3.20;;
75427;SDS011;64008;55.612;37.698;2023-08-17T01:03:40;8.27;;;3.40;;
75427;SDS011;64008;55.612;37.698;2023-08-17T01:06:06;9.45;;;3.47;;
75427;SDS011;64008;55.612;37.698;2023-08-17T01:08:32;9.13;;;3.67;;
75427;SDS011;64008;55.612;37.698;2023-08-17T01:11:18;7.57;;;3.30;;
75427;SDS011;64008;55.612;37.698;2023-08-17T01:14:11;8.57;;;3.65;;
75427;SDS011;64008;55.612;37.698;2023-08-17T01:16:48;6.35;;;3.28;;
75427;SDS011;64008;55.612;37.698;2023-08-17T01:19:27;7.18;;;3.58;;
75427;SDS011;64008;55.612;37.698;2023-08-17T01:21:54;7.88;;;3.50;;
75427;SDS011;64008;55.612;37.698;2023-08-17T01:26:51;7.90;;;3.28;;
75427;SDS011;64008;55.612;37.698;2023-08-17T01:29:17;8.20;;;3.35;;
75427;SDS011;64008;55.612;37.698;2023-08-17T01:34:22;7.80;;;3.40;;
75427;SDS011;64008;55.612;37.698;2023-08-17T01:36:57;8.50;;;3.28;;
75427;SDS011;64008;55.612;37.698;2023-08-17T01:39:31;9.55;;;3.70;;
75427;SDS011;64008;55.612;37.698;2023-08-17T01:42:01;8.70;;;3.42;;
75427;SDS011;64008;55.612;37.698;2023-08-17T01:44:27;6.82;;;3.30;;
75427;SDS011;64008;55.612;37.698;2023-08-17T01:46:53;8.70;;;3.75;;
75427;SDS011;64008;55.612;37.698;2023-08-17T01:49:18;8.10;;;3.70;;
75427;SDS011;64008;55.612;37.698;2023-08-17T01:51:44;7.75;;;3.58;;
75427;SDS011;64008;55.612;37.698;2023-08-17T01:54:10;8.65;;;3.70;;
75427;SDS011;64008;55.612;37.698;2023-08-17T01:56:35;8.18;;;3.38;;
75427;SDS011;64008;55.612;37.698;2023-08-17T01:59:01;6.88;;;3.67;;
75427;SDS011;64008;55.612;37.698;2023-08-17T02:01:26;8.65;;;3.80;;
75427;SDS011;64008;55.612;37.698;2023-08-17T02:03:52;11.00;;;3.30;;
75427;SDS011;64008;55.612;37.698;2023-08-17T02:06:17;8.82;;;3.83;;
75427;SDS011;64008;55.612;37.698;2023-08-17T02:08:43;9.63;;;3.85;;
75427;SDS011;64008;55.612;37.698;2023-08-17T02:13:35;6.15;;;3.05;;
75427;SDS011;64008;55.612;37.698;2023-08-17T02:16:02;7.07;;;3.20;;
75427;SDS011;64008;55.612;37.698;2023-08-17T02:20:56;7.18;;;3.03;;
75427;SDS011;64008;55.612;37.698;2023-08-17T02:23:22;7.93;;;3.10;;
75427;SDS011;64008;55.612;37.698;2023-08-17T02:25:47;6.65;;;3.42;;
75427;SDS011;64008;55.612;37.698;2023-08-17T02:28:13;9.88;;;3.50;;
75427;SDS011;64008;55.612;37.698;2023-08-17T02:30:38;7.90;;;3.50;;
75427;SDS011;64008;55.612;37.698;2023-08-17T02:33:04;7.68;;;3.55;;
75427;SDS011;64008;55.612;37.698;2023-08-17T02:35:29;8.90;;;3.88;;
75427;SDS011;64008;55.612;37.698;2023-08-17T02:37:55;9.20;;;3.75;;
75427;SDS011;64008;55.612;37.698;2023-08-17T02:40:21;8.40;;;4.20;;
75427;SDS011;64008;55.612;37.698;2023-08-17T02:42:46;10.23;;;3.63;;
75427;SDS011;64008;55.612;37.698;2023-08-17T02:45:12;8.98;;;3.85;;
75427;SDS011;64008;55.612;37.698;2023-08-17T02:47:37;8.70;;;3.85;;
75427;SDS011;64008;55.612;37.698;2023-08-17T02:50:03;9.60;;;3.78;;
75427;SDS011;64008;55.612;37.698;2023-08-17T02:52:29;8.27;;;4.25;;
75427;SDS011;64008;55.612;37.698;2023-08-17T02:54:54;8.13;;;3.40;;
75427;SDS011;64008;55.612;37.698;2023-08-17T02:57:20;9.13;;;3.85;;
75427;SDS011;64008;55.612;37.698;2023-08-17T02:59:45;12.45;;;3.85;;
75427;SDS011;64008;55.612;37.698;2023-08-17T03:02:11;11.15;;;4.60;;
75427;SDS011;64008;55.612;37.698;2023-08-17T03:04:37;12.13;;;3.78;;
75427;SDS011;64008;55.612;37.698;2023-08-17T03:07:02;9.52;;;3.58;;
75427;SDS011;64008;55.612;37.698;2023-08-17T03:09:28;8.38;;;4.18;;
75427;SDS011;64008;55.612;37.698;2023-08-17T03:11:53;10.70;;;4.30;;
75427;SDS011;64008;55.612;37.698;2023-08-17T03:14:19;10.10;;;3.80;;
75427;SDS011;64008;55.612;37.698;2023-08-17T03:16:44;8.85;;;4.13;;
75427;SDS011;64008;55.612;37.698;2023-08-17T03:19:10;9.20;;;3.83;;
75427;SDS011;64008;55.612;37.698;2023-08-17T03:24:02;11.95;;;4.25;;
75427;SDS011;64008;55.612;37.698;2023-08-17T03:26:28;9.13;;;4.28;;
75427;SDS011;64008;55.612;37.698;2023-08-17T03:28:53;9.88;;;4.20;;
75427;SDS011;64008;55.612;37.698;2023-08-17T03:31:22;11.23;;;4.13;;
75427;SDS011;64008;55.612;37.698;2023-08-17T03:33:48;9.40;;;4.18;;
75427;SDS011;64008;55.612;37.698;2023-08-17T03:36:14;9.63;;;4.32;;
75427;SDS011;64008;55.612;37.698;2023-08-17T03:38:40;9.10;;;4.35;;
75427;SDS011;64008;55.612;37.698;2023-08-17T03:41:05;9.05;;;4.47;;
75427;SDS011;64008;55.612;37.698;2023-08-17T03:43:31;9.98;;;4.40;;
75427;SDS011;64008;55.612;37.698;2023-08-17T03:45:57;11.90;;;4.60;;
75427;SDS011;64008;55.612;37.698;2023-08-17T03:48:22;12.25;;;4.78;;
75427;SDS011;64008;55.612;37.698;2023-08-17T03:50:52;13.15;;;4.93;;
75427;SDS011;64008;55.612;37.698;2023-08-17T03:53:18;9.63;;;4.35;;
75427;SDS011;64008;55.612;37.698;2023-08-17T03:55:49;9.98;;;4.18;;
75427;SDS011;64008;55.612;37.698;2023-08-17T03:58:16;11.05;;;4.35;;
75427;SDS011;64008;55.612;37.698;2023-08-17T04:00:47;8.07;;;4.00;;
75427;SDS011;64008;55.612;37.698;2023-08-17T04:03:14;12.27;;;5.97;;
75427;SDS011;64008;55.612;37.698;2023-08-17T04:05:39;11.00;;;5.75;;
75427;SDS011;64008;55.612;37.698;2023-08-17T04:08:05;11.30;;;4.72;;
75427;SDS011;64008;55.612;37.698;2023-08-17T04:10:30;9.70;;;4.68;;
75427;SDS011;64008;55.612;37.698;2023-08-17T04:12:56;7.65;;;3.95;;
75427;SDS011;64008;55.612;37.698;2023-08-17T04:15:22;9.38;;;4.47;;
75427;SDS011;64008;55.612;37.698;2023-08-17T04:17:48;13.23;;;6.90;;
75427;SDS011;64008;55.612;37.698;2023-08-17T04:20:13;11.07;;;5.40;;
75427;SDS011;64008;55.612;37.698;2023-08-17T04:22:39;10.07;;;5.07;;
75427;SDS011;64008;55.612;37.698;2023-08-17T04:25:04;10.10;;;4.50;;
75427;SDS011;64008;55.612;37.698;2023-08-17T04:27:30;9.18;;;4.53;;
75427;SDS011;64008;55.612;37.698;2023-08-17T04:29:56;10.85;;;5.20;;
75427;SDS011;64008;55.612;37.698;2023-08-17T04:32:22;14.10;;;5.70;;
75427;SDS011;64008;55.612;37.698;2023-08-17T04:34:48;10.55;;;5.38;;
75427;SDS011;64008;55.612;37.698;2023-08-17T04:37:13;9.82;;;5.15;;
75427;SDS011;64008;55.612;37.698;2023-08-17T04:39:39;10.85;;;5.53;;
75427;SDS011;64008;55.612;37.698;2023-08-17T04:42:06;9.70;;;5.25;;
75427;SDS011;64008;55.612;37.698;2023-08-17T04:44:31;14.82;;;5.70;;
75427;SDS011;64008;55.612;37.698;2023-08-17T04:46:57;10.75;;;5.75;;
75427;SDS011;64008;55.612;37.698;2023-08-17T04:49:23;10.23;;;5.03;;
75427;SDS011;64008;55.612;37.698;2023-08-17T04:51:48;11.88;;;5.28;;
75427;SDS011;64008;55.612;37.698;2023-08-17T04:54:14;13.05;;;5.30;;
75427;SDS011;64008;55.612;37.698;2023-08-17T04:56:39;12.25;;;5.00;;
75427;SDS011;64008;55.612;37.698;2023-08-17T04:59:05;10.05;;;4.75;;
75427;SDS011;64008;55.612;37.698;2023-08-17T05:01:30;9.45;;;4.53;;
75427;SDS011;64008;55.612;37.698;2023-08-17T05:06:22;9.00;;;4.07;;
75427;SDS011;64008;55.612;37.698;2023-08-17T05:08:47;7.47;;;3.78;;
75427;SDS011;64008;55.612;37.698;2023-08-17T05:11:13;8.40;;;3.78;;
75427;SDS011;64008;55.612;37.698;2023-08-17T05:13:39;10.85;;;3.70;;
75427;SDS011;64008;55.612;37.698;2023-08-17T05:16:04;6.88;;;3.22;;
75427;SDS011;64008;55.612;37.698;2023-08-17T05:18:30;6.07;;;3.00;;
75427;SDS011;64008;55.612;37.698;2023-08-17T05:20:56;6.45;;;3.10;;
75427;SDS011;64008;55.612;37.698;2023-08-17T05:23:21;9.77;;;3.80;;
75427;SDS011;64008;55.612;37.698;2023-08-17T05:25:47;7.43;;;3.38;;
75427;SDS011;64008;55.612;37.698;2023-08-17T05:28:13;7.30;;;3.63;;
75427;SDS011;64008;55.612;37.698;2023-08-17T05:30:38;8.95;;;3.38;;
75427;SDS011;64008;55.612;37.698;2023-08-17T05:33:04;7.32;;;3.25;;
75427;SDS011;64008;55.612;37.698;2023-08-17T05:35:29;6.72;;;3.10;;
75427;SDS011;64008;55.612;37.698;2023-08-17T05:37:55;10.05;;;3.10;;
75427;SDS011;64008;55.612;37.698;2023-08-17T05:40:20;6.38;;;3.17;;
75427;SDS011;64008;55.612;37.698;2023-08-17T05:42:46;6.25;;;2.92;;
75427;SDS011;64008;55.612;37.698;2023-08-17T05:45:11;7.78;;;3.10;;
75427;SDS011;64008;55.612;37.698;2023-08-17T05:47:37;7.25;;;2.70;;
75427;SDS011;64008;55.612;37.698;2023-08-17T05:50:03;6.20;;;3.20;;
75427;SDS011;64008;55.612;37.698;2023-08-17T05:52:28;7.85;;;3.22;;
75427;SDS011;64008;55.612;37.698;2023-08-17T05:54:54;6.18;;;2.63;;
75427;SDS011;64008;55.612;37.698;2023-08-17T05:57:19;5.97;;;2.50;;
75427;SDS011;64008;55.612;37.698;2023-08-17T05:59:45;6.93;;;2.80;;
75427;SDS011;64008;55.612;37.698;2023-08-17T06:02:10;5.40;;;2.67;;
75427;SDS011;64008;55.612;37.698;2023-08-17T06:04:36;5.63;;;2.45;;
75427;SDS011;64008;55.612;37.698;2023-08-17T06:07:01;6.60;;;2.50;;
75427;SDS011;64008;55.612;37.698;2023-08-17T06:09:27;5.70;;;2.83;;
75427;SDS011;64008;55.612;37.698;2023-08-17T06:11:52;5.30;;;2.42;;
75427;SDS011;64008;55.612;37.698;2023-08-17T06:14:18;5.65;;;2.63;;
75427;SDS011;64008;55.612;37.698;2023-08-17T06:16:43;5.80;;;2.60;;
75427;SDS011;64008;55.612;37.698;2023-08-17T06:19:09;6.00;;;2.40;;
75427;SDS011;64008;55.612;37.698;2023-08-17T06:21:34;5.80;;;2.42;;
75427;SDS011;64008;55.612;37.698;2023-08-17T06:24:00;6.22;;;2.53;;
75427;SDS011;64008;55.612;37.698;2023-08-17T06:26:25;5.32;;;2.40;;
75427;SDS011;64008;55.612;37.698;2023-08-17T06:28:51;5.38;;;2.30;;
75427;SDS011;64008;55.612;37.698;2023-08-17T06:31:16;5.20;;;2.47;;
75427;SDS011;64008;55.612;37.698;2023-08-17T06:33:42;5.22;;;2.25;;
75427;SDS011;64008;55.612;37.698;2023-08-17T06:36:07;5.22;;;1.98;;
75427;SDS011;64008;55.612;37.698;2023-08-17T06:38:33;4.80;;;2.10;;
75427;SDS011;64008;55.612;37.698;2023-08-17T06:40:58;5.60;;;2.13;;
75427;SDS011;64008;55.612;37.698;2023-08-17T06:43:24;4.72;;;2.13;;
75427;SDS011;64008;55.612;37.698;2023-08-17T06:45:49;5.07;;;2.50;;
75427;SDS011;64008;55.612;37.698;2023-08-17T06:48:15;5.05;;;2.10;;
75427;SDS011;64008;55.612;37.698;2023-08-17T06:50:40;5.10;;;1.90;;
75427;SDS011;64008;55.612;37.698;2023-08-17T06:53:07;5.20;;;2.08;;
75427;SDS011;64008;55.612;37.698;2023-08-17T06:57:57;5.00;;;2.00;;
75427;SDS011;64008;55.612;37.698;2023-08-17T07:00:23;4.45;;;2.00;;
75427;SDS011;64008;55.612;37.698;2023-08-17T07:02:49;4.40;;;1.80;;
75427;SDS011;64008;55.612;37.698;2023-08-17T07:05:15;4.53;;;2.15;;
75427;SDS011;64008;55.612;37.698;2023-08-17T07:07:41;3.53;;;1.55;;
75427;SDS011;64008;55.612;37.698;2023-08-17T07:10:10;3.90;;;1.75;;
75427;SDS011;64008;55.612;37.698;2023-08-17T07:12:38;4.00;;;1.83;;
75427;SDS011;64008;55.612;37.698;2023-08-17T07:15:05;5.50;;;2.08;;
75427;SDS011;64008;55.612;37.698;2023-08-17T07:17:31;4.18;;;1.77;;
75427;SDS011;64008;55.612;37.698;2023-08-17T07:19:59;4.40;;;1.90;;
75427;SDS011;64008;55.612;37.698;2023-08-17T07:22:24;4.20;;;1.55;;
75427;SDS011;64008;55.612;37.698;2023-08-17T07:24:50;4.10;;;1.70;;
75427;SDS011;64008;55.612;37.698;2023-08-17T07:27:15;3.85;;;1.50;;
75427;SDS011;64008;55.612;37.698;2023-08-17T07:29:40;3.88;;;1.45;;
75427;SDS011;64008;55.612;37.698;2023-08-17T07:32:06;3.72;;;1.70;;
75427;SDS011;64008;55.612;37.698;2023-08-17T07:34:32;4.55;;;1.70;;
75427;SDS011;64008;55.612;37.698;2023-08-17T07:36:58;4.20;;;1.77;;
75427;SDS011;64008;55.612;37.698;2023-08-17T07:39:23;4.70;;;1.63;;
75427;SDS011;64008;55.612;37.698;2023-08-17T07:41:49;3.80;;;1.70;;
75427;SDS011;64008;55.612;37.698;2023-08-17T07:44:14;4.38;;;1.65;;
75427;SDS011;64008;55.612;37.698;2023-08-17T07:46:40;4.63;;;1.95;;
75427;SDS011;64008;55.612;37.698;2023-08-17T07:49:06;3.10;;;1.30;;
75427;SDS011;64008;55.612;37.698;2023-08-17T07:51:31;4.88;;;1.67;;
75427;SDS011;64008;55.612;37.698;2023-08-17T07:53:59;3.65;;;1.42;;
75427;SDS011;64008;55.612;37.698;2023-08-17T07:56:25;4.32;;;1.48;;
75427;SDS011;64008;55.612;37.698;2023-08-17T07:58:51;3.92;;;1.60;;
75427;SDS011;64008;55.612;37.698;2023-08-17T08:01:18;4.40;;;1.50;;
75427;SDS011;64008;55.612;37.698;2023-08-17T08:03:43;3.25;;;1.20;;
75427;SDS011;64008;55.612;37.698;2023-08-17T08:06:09;3.70;;;1.50;;
75427;SDS011;64008;55.612;37.698;2023-08-17T08:08:34;4.03;;;1.60;;
75427;SDS011;64008;55.612;37.698;2023-08-17T08:11:00;4.13;;;1.40;;
75427;SDS011;64008;55.612;37.698;2023-08-17T08:13:25;3.42;;;1.30;;
75427;SDS011;64008;55.612;37.698;2023-08-17T08:15:51;3.58;;;1.30;;
75427;SDS011;64008;55.612;37.698;2023-08-17T08:18:16;3.17;;;1.27;;
75427;SDS011;64008;55.612;37.698;2023-08-17T08:20:42;3.00;;;1.25;;
75427;SDS011;64008;55.612;37.698;2023-08-17T08:23:07;4.43;;;1.58;;
75427;SDS011;64008;55.612;37.698;2023-08-17T08:25:33;4.75;;;1.50;;
75427;SDS011;64008;55.612;37.698;2023-08-17T08:27:58;5.32;;;1.60;;
75427;SDS011;64008;55.612;37.698;2023-08-17T08:30:24;4.05;;;1.42;;
75427;SDS011;64008;55.612;37.698;2023-08-17T08:32:49;3.80;;;1.40;;
75427;SDS011;64008;55.612;37.698;2023-08-17T08:35:15;3.28;;;1.30;;
75427;SDS011;64008;55.612;37.698;2023-08-17T08:37:40;3.40;;;1.30;;
75427;SDS011;64008;55.612;37.698;2023-08-17T08:40:07;3.67;;;1.40;;
75427;SDS011;64008;55.612;37.698;2023-08-17T08:42:37;3.63;;;1.13;;
75427;SDS011;64008;55.612;37.698;2023-08-17T08:45:02;3.85;;;1.20;;
75427;SDS011;64008;55.612;37.698;2023-08-17T08:47:28;2.88;;;1.05;;
75427;SDS011;64008;55.612;37.698;2023-08-17T08:50:00;3.45;;;1.20;;
75427;SDS011;64008;55.612;37.698;2023-08-17T08:52:34;3.40;;;1.30;;
75427;SDS011;64008;55.612;37.698;2023-08-17T08:55:19;3.40;;;1.35;;
75427;SDS011;64008;55.612;37.698;2023-08-17T08:57:48;2.78;;;1.17;;
75427;SDS011;64008;55.612;37.698;2023-08-17T09:00:15;3.05;;;1.10;;
75427;SDS011;64008;55.612;37.698;2023-08-17T09:02:42;2.83;;;1.10;;
75427;SDS011;64008;55.612;37.698;2023-08-17T09:05:09;2.70;;;1.13;;
75427;SDS011;64008;55.612;37.698;2023-08-17T09:07:37;4.13;;;1.55;;
75427;SDS011;64008;55.612;37.698;2023-08-17T09:10:04;3.40;;;1.38;;
75427;SDS011;64008;55.612;37.698;2023-08-17T09:12:30;2.92;;;1.10;;
75427;SDS011;64008;55.612;37.698;2023-08-17T09:14:56;3.47;;;1.27;;
75427;SDS011;64008;55.612;37.698;2023-08-17T09:17:25;2.92;;;1.02;;
75427;SDS011;64008;55.612;37.698;2023-08-17T09:19:52;3.22;;;1.20;;
75427;SDS011;64008;55.612;37.698;2023-08-17T09:22:24;2.33;;;1.00;;
75427;SDS011;64008;55.612;37.698;2023-08-17T09:24:50;3.30;;;1.20;;
75427;SDS011;64008;55.612;37.698;2023-08-17T09:27:16;3.55;;;1.10;;
75427;SDS011;64008;55.612;37.698;2023-08-17T09:29:42;3.22;;;1.30;;
75427;SDS011;64008;55.612;37.698;2023-08-17T09:32:10;3.53;;;1.20;;
75427;SDS011;64008;55.612;37.698;2023-08-17T09:34:36;4.10;;;1.40;;
75427;SDS011;64008;55.612;37.698;2023-08-17T09:37:04;2.75;;;1.02;;
75427;SDS011;64008;55.612;37.698;2023-08-17T09:39:31;4.43;;;1.30;;
75427;SDS011;64008;55.612;37.698;2023-08-17T09:41:57;3.00;;;1.23;;
75427;SDS011;64008;55.612;37.698;2023-08-17T09:44:24;2.85;;;1.00;;
75427;SDS011;64008;55.612;37.698;2023-08-17T09:46:49;2.67;;;1.00;;
75427;SDS011;64008;55.612;37.698;2023-08-17T09:49:16;2.97;;;0.90;;
75427;SDS011;64008;55.612;37.698;2023-08-17T09:51:43;3.35;;;0.90;;
75427;SDS011;64008;55.612;37.698;2023-08-17T09:54:22;2.90;;;1.10;;
75427;SDS011;64008;55.612;37.698;2023-08-17T09:56:51;2.72;;;0.85;;
75427;SDS011;64008;55.612;37.698;2023-08-17T09:59:18;3.10;;;1.02;;
75427;SDS011;64008;55.612;37.698;2023-08-17T10:01:44;3.00;;;1.00;;
75427;SDS011;64008;55.612;37.698;2023-08-17T10:04:11;3.22;;;1.20;;
75427;SDS011;64008;55.612;37.698;2023-08-17T10:06:39;2.83;;;0.93;;
75427;SDS011;64008;55.612;37.698;2023-08-17T10:09:05;2.70;;;0.90;;
75427;SDS011;64008;55.612;37.698;2023-08-17T10:11:34;2.65;;;1.00;;
75427;SDS011;64008;55.612;37.698;2023-08-17T10:14:05;2.38;;;1.00;;
75427;SDS011;64008;55.612;37.698;2023-08-17T10:16:37;3.20;;;1.00;;
75427;SDS011;64008;55.612;37.698;2023-08-17T10:24:19;2.05;;;0.80;;
75427;SDS011;64008;55.612;37.698;2023-08-17T10:26:45;2.50;;;1.13;;
75427;SDS011;64008;55.612;37.698;2023-08-17T10:29:11;2.22;;;0.93;;
75427;SDS011;64008;55.612;37.698;2023-08-17T10:31:37;2.28;;;0.85;;
75427;SDS011;64008;55.612;37.698;2023-08-17T10:34:03;2.10;;;0.80;;
75427;SDS011;64008;55.612;37.698;2023-08-17T10:36:30;2.92;;;1.05;;
75427;SDS011;64008;55.612;37.698;2023-08-17T10:41:49;2.05;;;0.63;;
75427;SDS011;64008;55.612;37.698;2023-08-17T10:44:17;2.50;;;0.93;;
75427;SDS011;64008;55.612;37.698;2023-08-17T10:46:43;3.45;;;1.10;;
75427;SDS011;64008;55.612;37.698;2023-08-17T10:49:26;3.13;;;0.80;;
75427;SDS011;64008;55.612;37.698;2023-08-17T10:52:02;2.40;;;0.80;;
75427;SDS011;64008;55.612;37.698;2023-08-17T10:54:37;2.50;;;0.95;;
75427;SDS011;64008;55.612;37.698;2023-08-17T11:02:40;2.70;;;1.08;;
75427;SDS011;64008;55.612;37.698;2023-08-17T11:05:08;2.80;;;0.90;;
75427;SDS011;64008;55.612;37.698;2023-08-17T11:07:43;2.55;;;0.98;;
75427;SDS011;64008;55.612;37.698;2023-08-17T11:10:44;2.53;;;0.93;;
75427;SDS011;64008;55.612;37.698;2023-08-17T11:13:01;2.60;;;0.82;;
75427;SDS011;64008;55.612;37.698;2023-08-17T11:15:42;2.80;;;0.90;;
75427;SDS011;64008;55.612;37.698;2023-08-17T11:18:09;2.78;;;0.88;;
75427;SDS011;64008;55.612;37.698;2023-08-17T11:20:37;2.80;;;0.80;;
75427;SDS011;64008;55.612;37.698;2023-08-17T11:23:04;2.22;;;0.80;;
75427;SDS011;64008;55.612;37.698;2023-08-17T11:25:31;2.50;;;0.98;;
75427;SDS011;64008;55.612;37.698;2023-08-17T11:27:57;2.30;;;0.80;;
75427;SDS011;64008;55.612;37.698;2023-08-17T11:30:24;2.55;;;0.82;;
75427;SDS011;64008;55.612;37.698;2023-08-17T11:32:51;1.48;;;0.63;;
75427;SDS011;64008;55.612;37.698;2023-08-17T11:35:18;2.60;;;0.90;;
75427;SDS011;64008;55.612;37.698;2023-08-17T11:37:44;2.58;;;0.85;;
75427;SDS011;64008;55.612;37.698;2023-08-17T11:40:13;1.73;;;0.73;;
75427;SDS011;64008;55.612;37.698;2023-08-17T11:42:38;1.83;;;0.70;;
75427;SDS011;64008;55.612;37.698;2023-08-17T11:45:04;1.80;;;0.68;;
75427;SDS011;64008;55.612;37.698;2023-08-17T11:47:31;2.17;;;0.80;;
75427;SDS011;64008;55.612;37.698;2023-08-17T11:50:01;2.97;;;0.80;;
75427;SDS011;64008;55.612;37.698;2023-08-17T11:52:27;2.30;;;0.60;;
75427;SDS011;64008;55.612;37.698;2023-08-17T11:54:54;2.20;;;0.80;;
75427;SDS011;64008;55.612;37.698;2023-08-17T11:57:21;2.10;;;0.77;;
75427;SDS011;64008;55.612;37.698;2023-08-17T11:59:46;2.28;;;0.77;;
75427;SDS011;64008;55.612;37.698;2023-08-17T12:02:12;2.55;;;0.80;;
75427;SDS011;64008;55.612;37.698;2023-08-17T12:04:37;1.90;;;0.80;;
75427;SDS011;64008;55.612;37.698;2023-08-17T12:07:03;2.33;;;0.75;;
75427;SDS011;64008;55.612;37.698;2023-08-17T12:09:31;2.28;;;0.70;;
75427;SDS011;64008;55.612;37.698;2023-08-17T12:12:00;2.33;;;0.80;;
75427;SDS011;64008;55.612;37.698;2023-08-17T12:14:27;2.33;;;0.90;;
75427;SDS011;64008;55.612;37.698;2023-08-17T12:16:55;1.55;;;0.60;;
75427;SDS011;64008;55.612;37.698;2023-08-17T12:19:21;1.25;;;0.55;;
75427;SDS011;64008;55.612;37.698;2023-08-17T12:21:49;1.45;;;0.57;;
75427;SDS011;64008;55.612;37.698;2023-08-17T12:24:14;1.65;;;0.55;;
75427;SDS011;64008;55.612;37.698;2023-08-17T12:26:44;2.15;;;0.80;;
75427;SDS011;64008;55.612;37.698;2023-08-17T12:29:09;1.80;;;0.70;;
75427;SDS011;64008;55.612;37.698;2023-08-17T12:31:35;1.60;;;0.60;;
75427;SDS011;64008;55.612;37.698;2023-08-17T12:34:01;3.17;;;0.77;;
75427;SDS011;64008;55.612;37.698;2023-08-17T12:36:26;2.70;;;0.90;;
75427;SDS011;64008;55.612;37.698;2023-08-17T12:38:52;2.38;;;0.70;;
75427;SDS011;64008;55.612;37.698;2023-08-17T12:41:18;1.27;;;0.60;;
75427;SDS011;64008;55.612;37.698;2023-08-17T12:43:43;1.75;;;0.70;;
75427;SDS011;64008;55.612;37.698;2023-08-17T12:46:09;1.52;;;0.63;;
75427;SDS011;64008;55.612;37.698;2023-08-17T12:48:36;1.58;;;0.55;;
75427;SDS011;64008;55.612;37.698;2023-08-17T12:51:02;2.10;;;0.80;;
75427;SDS011;64008;55.612;37.698;2023-08-17T12:53:27;2.25;;;0.90;;
75427;SDS011;64008;55.612;37.698;2023-08-17T12:55:53;1.98;;;0.80;;
75427;SDS011;64008;55.612;37.698;2023-08-17T12:58:18;2.08;;;0.70;;
75427;SDS011;64008;55.612;37.698;2023-08-17T13:00:44;1.88;;;0.63;;
75427;SDS011;64008;55.612;37.698;2023-08-17T13:03:09;1.70;;;0.70;;
75427;SDS011;64008;55.612;37.698;2023-08-17T13:05:35;2.30;;;0.80;;
75427;SDS011;64008;55.612;37.698;2023-08-17T13:08:00;1.88;;;0.60;;
75427;SDS011;64008;55.612;37.698;2023-08-17T13:10:26;2.55;;;0.93;;
75427;SDS011;64008;55.612;37.698;2023-08-17T13:12:52;1.45;;;0.60;;
75427;SDS011;64008;55.612;37.698;2023-08-17T13:15:20;2.03;;;0.75;;
75427;SDS011;64008;55.612;37.698;2023-08-17T13:17:46;2.22;;;0.73;;
75427;SDS011;64008;55.612;37.698;2023-08-17T13:20:12;1.63;;;0.55;;
75427;SDS011;64008;55.612;37.698;2023-08-17T13:22:38;2.45;;;0.80;;
75427;SDS011;64008;55.612;37.698;2023-08-17T13:25:04;1.60;;;0.60;;
75427;SDS011;64008;55.612;37.698;2023-08-17T13:27:29;1.58;;;0.63;;
75427;SDS011;64008;55.612;37.698;2023-08-17T13:29:55;1.88;;;0.73;;
75427;SDS011;64008;55.612;37.698;2023-08-17T13:32:21;1.77;;;0.70;;
75427;SDS011;64008;55.612;37.698;2023-08-17T13:34:46;1.35;;;0.60;;
75427;SDS011;64008;55.612;37.698;2023-08-17T13:37:11;2.03;;;0.70;;
75427;SDS011;64008;55.612;37.698;2023-08-17T13:39:37;1.95;;;0.63;;
75427;SDS011;64008;55.612;37.698;2023-08-17T13:42:03;1.77;;;0.50;;
75427;SDS011;64008;55.612;37.698;2023-08-17T13:44:28;1.67;;;0.60;;
75427;SDS011;64008;55.612;37.698;2023-08-17T13:46:54;1.63;;;0.57;;
75427;SDS011;64008;55.612;37.698;2023-08-17T13:49:19;1.55;;;0.68;;
75427;SDS011;64008;55.612;37.698;2023-08-17T13:51:45;1.75;;;0.60;;
75427;SDS011;64008;55.612;37.698;2023-08-17T13:54:10;1.63;;;0.60;;
75427;SDS011;64008;55.612;37.698;2023-08-17T13:56:36;2.10;;;0.90;;
75427;SDS011;64008;55.612;37.698;2023-08-17T13:59:01;1.95;;;0.80;;
75427;SDS011;64008;55.612;37.698;2023-08-17T14:01:27;1.92;;;0.70;;
75427;SDS011;64008;55.612;37.698;2023-08-17T14:03:53;1.80;;;0.77;;
75427;SDS011;64008;55.612;37.698;2023-08-17T14:06:18;1.27;;;0.55;;
75427;SDS011;64008;55.612;37.698;2023-08-17T14:08:44;2.13;;;0.85;;
75427;SDS011;64008;55.612;37.698;2023-08-17T14:11:09;1.70;;;0.55;;
75427;SDS011;64008;55.612;37.698;2023-08-17T14:13:35;2.20;;;0.60;;
75427;SDS011;64008;55.612;37.698;2023-08-17T14:18:27;2.38;;;0.60;;
75427;SDS011;64008;55.612;37.698;2023-08-17T14:20:53;1.70;;;0.60;;
75427;SDS011;64008;55.612;37.698;2023-08-17T14:23:18;1.80;;;0.75;;
75427;SDS011;64008;55.612;37.698;2023-08-17T14:25:44;3.55;;;0.70;;
75427;SDS011;64008;55.612;37.698;2023-08-17T14:28:09;1.80;;;0.60;;
75427;SDS011;64008;55.612;37.698;2023-08-17T14:30:35;1.65;;;0.50;;
75427;SDS011;64008;55.612;37.698;2023-08-17T14:33:00;2.08;;;0.70;;
75427;SDS011;64008;55.612;37.698;2023-08-17T14:35:26;1.85;;;0.60;;
75427;SDS011;64008;55.612;37.698;2023-08-17T14:37:52;1.70;;;0.65;;
75427;SDS011;64008;55.612;37.698;2023-08-17T14:40:18;3.45;;;0.60;;
75427;SDS011;64008;55.612;37.698;2023-08-17T14:42:44;2.40;;;0.70;;
75427;SDS011;64008;55.612;37.698;2023-08-17T14:45:11;1.73;;;0.60;;
75427;SDS011;64008;55.612;37.698;2023-08-17T14:47:36;1.38;;;0.60;;
75427;SDS011;64008;55.612;37.698;2023-08-17T14:50:02;1.30;;;0.77;;
75427;SDS011;64008;55.612;37.698;2023-08-17T14:52:29;1.58;;;0.50;;
75427;SDS011;64008;55.612;37.698;2023-08-17T14:54:54;1.70;;;0.60;;
75427;SDS011;64008;55.612;37.698;2023-08-17T14:57:20;1.85;;;0.65;;
75427;SDS011;64008;55.612;37.698;2023-08-17T14:59:45;1.65;;;0.52;;
75427;SDS011;64008;55.612;37.698;2023-08-17T15:02:11;1.98;;;0.57;;
75427;SDS011;64008;55.612;37.698;2023-08-17T15:04:36;1.95;;;0.60;;